Terminal Aerodrome Forecast
Issued by NWS

Home | Current Version | Previous Version | Text Only | Print | Product List | Glossary On
Versions: 1 2 3 4 5 6 7 8 9 10 11 12 13 14 15 16 17 18
000
FTUS42 KMLB 270349 AAB
TAFSUA
TAF AMD
KSUA 270349Z 2704/2724 35004KT P6SM VCSH OVC022
     FM270500 33007KT P6SM BKN020 OVC040
     FM270900 03008KT P6SM VCSH BKN015 OVC030
     FM271500 01008KT P6SM VCSH OVC025=

USA.gov is the U.S. government's official web portal to all federal, state and local government web resources and services.